createdAt,value
2022-11-05T00:00:19.581Z,89.09
2022-11-05T00:03:04.789Z,89.75
2022-11-05T00:05:50.586Z,89.28
2022-11-05T00:08:36.003Z,88.85
2022-11-05T00:11:02.742Z,89.64
2022-11-05T00:13:47.951Z,88.60
2022-11-05T00:16:46.930Z,88.64
2022-11-05T00:19:15.026Z,88.28
2022-11-05T00:22:00.083Z,87.86
2022-11-05T00:24:45.586Z,87.90
2022-11-05T00:27:12.208Z,88.55
2022-11-05T00:29:38.780Z,88.54
2022-11-05T00:32:05.476Z,88.21
2022-11-05T00:34:32.110Z,88.51
2022-11-05T00:36:58.760Z,88.43
2022-11-05T00:39:25.390Z,88.15
2022-11-05T00:42:12.003Z,88.06
2022-11-05T00:44:57.171Z,88.09
2022-11-05T00:47:42.783Z,88.62
2022-11-05T00:50:10.872Z,88.57
2022-11-05T00:52:56.323Z,88.66
2022-11-05T00:55:24.526Z,87.74
2022-11-05T00:57:51.574Z,88.50
2022-11-05T01:00:18.610Z,88.17
2022-11-05T01:02:45.696Z,88.89
2022-11-05T01:05:13.597Z,88.05
2022-11-05T01:07:40.419Z,88.65
2022-11-05T01:10:07.332Z,87.97
2022-11-05T01:12:34.052Z,88.14
2022-11-05T01:15:00.832Z,88.41
2022-11-05T01:17:27.553Z,89.22
2022-11-05T01:19:54.065Z,88.32
2022-11-05T01:22:20.546Z,88.33
2022-11-05T01:24:46.985Z,88.91
2022-11-05T01:27:13.558Z,87.73
2022-11-05T01:29:40.205Z,88.09
2022-11-05T01:32:06.742Z,88.93
2022-11-05T01:34:33.308Z,89.29
2022-11-05T01:36:59.886Z,88.86
2022-11-05T01:39:26.410Z,88.19
2022-11-05T01:41:52.945Z,88.64
2022-11-05T01:44:48.033Z,88.85
2022-11-05T01:47:29.728Z,88.98
2022-11-05T01:50:00.419Z,89.35
2022-11-05T01:52:29.557Z,89.42
2022-11-05T01:54:56.716Z,88.30
2022-11-05T01:57:23.643Z,87.93
2022-11-05T01:59:55.421Z,88.06
2022-11-05T02:02:25.262Z,88.95
2022-11-05T02:04:57.608Z,88.37
2022-11-05T02:07:26.824Z,88.42
2022-11-05T02:10:09.280Z,89.14
2022-11-05T02:12:38.678Z,88.52
2022-11-05T02:15:06.853Z,88.39
2022-11-05T02:17:54.937Z,88.93
2022-11-05T02:20:32.546Z,88.92
2022-11-05T02:23:17.274Z,88.64
2022-11-05T02:25:55.901Z,89.03
2022-11-05T02:28:34.597Z,88.30
2022-11-05T02:31:10.194Z,87.67
2022-11-05T02:34:02.355Z,88.57
2022-11-05T02:36:43.326Z,88.52
2022-11-05T02:39:25.478Z,87.85
2022-11-05T02:42:02.039Z,88.14
2022-11-05T02:44:56.751Z,88.27
2022-11-05T02:47:45.592Z,88.90
2022-11-05T02:50:24.297Z,88.50
2022-11-05T02:53:02.188Z,89.10
2022-11-05T02:55:28.631Z,88.80
2022-11-05T02:57:55.326Z,89.11
2022-11-05T03:00:40.142Z,88.88
2022-11-05T03:03:30.771Z,88.41
2022-11-05T03:06:23.494Z,88.83
2022-11-05T03:09:20.598Z,89.33
2022-11-05T03:12:13.036Z,88.59
2022-11-05T03:15:11.390Z,89.51
2022-11-05T03:18:08.446Z,89.05
2022-11-05T03:20:47.394Z,89.51
2022-11-05T03:23:16.884Z,87.94
2022-11-05T03:25:49.399Z,88.53
2022-11-05T03:28:21.146Z,89.13
2022-11-05T03:30:50.075Z,88.92
2022-11-05T03:33:22.203Z,88.48
2022-11-05T03:35:54.010Z,88.46
2022-11-05T03:38:27.027Z,88.82
2022-11-05T03:40:57.077Z,88.29
2022-11-05T03:43:30.446Z,88.69
2022-11-05T03:46:09.683Z,88.08
2022-11-05T03:48:41.655Z,88.45
2022-11-05T03:51:18.837Z,88.24
2022-11-05T03:53:51.942Z,87.70
2022-11-05T03:56:25.024Z,87.81
2022-11-05T03:58:58.723Z,88.45
2022-11-05T04:01:26.552Z,87.79
2022-11-05T04:03:53.398Z,87.65
2022-11-05T04:06:38.565Z,87.86
2022-11-05T04:09:23.303Z,87.56
2022-11-05T04:12:08.127Z,87.99
2022-11-05T04:14:34.834Z,88.63
2022-11-05T04:17:07.335Z,88.22
2022-11-05T04:20:00.112Z,87.71
2022-11-05T04:22:47.219Z,87.91
2022-11-05T04:25:14.837Z,87.88
2022-11-05T04:27:41.456Z,87.43
2022-11-05T04:30:20.851Z,87.40
2022-11-05T04:33:06.892Z,87.76
2022-11-05T04:35:36.549Z,88.00
2022-11-05T04:38:04.028Z,87.64
2022-11-05T04:40:30.789Z,87.53
2022-11-05T04:42:58.423Z,87.90
2022-11-05T04:45:27.089Z,87.79
2022-11-05T04:47:53.699Z,88.47
2022-11-05T04:50:22.366Z,87.92
2022-11-05T04:52:49.019Z,88.24
2022-11-05T04:55:15.567Z,88.06
2022-11-05T04:57:42.069Z,87.86
2022-11-05T05:00:09.775Z,88.43
2022-11-05T05:02:36.746Z,88.96
2022-11-05T05:05:04.018Z,88.35
2022-11-05T05:07:30.722Z,89.19
2022-11-05T05:09:57.252Z,88.29
2022-11-05T05:12:23.822Z,87.65
2022-11-05T05:14:50.386Z,88.26
2022-11-05T05:17:17.006Z,87.86
2022-11-05T05:20:02.207Z,88.81
2022-11-05T05:22:28.872Z,87.80
2022-11-05T05:24:56.680Z,88.30
2022-11-05T05:27:24.458Z,88.07
2022-11-05T05:29:50.999Z,87.74
2022-11-05T05:32:17.465Z,88.58
2022-11-05T05:34:44.395Z,88.32
2022-11-05T05:37:10.911Z,88.23
2022-11-05T05:39:37.456Z,87.64
2022-11-05T05:42:04.159Z,87.73
2022-11-05T05:44:30.720Z,87.92
2022-11-05T05:46:57.310Z,87.29
2022-11-05T05:49:23.940Z,88.10
2022-11-05T05:51:50.451Z,88.12
2022-11-05T05:54:17.276Z,88.07
2022-11-05T05:56:44.468Z,88.33
2022-11-05T05:59:11.842Z,87.39
2022-11-05T06:01:38.530Z,87.92
2022-11-05T06:04:05.569Z,88.47
2022-11-05T06:06:32.159Z,87.82
2022-11-05T06:08:58.919Z,87.76
2022-11-05T06:11:25.791Z,88.15
2022-11-05T06:13:52.359Z,87.68
2022-11-05T06:16:21.418Z,86.49
2022-11-05T06:18:47.953Z,87.22
2022-11-05T06:21:16.804Z,86.60
2022-11-05T06:23:45.250Z,87.29
2022-11-05T06:26:17.413Z,86.39
2022-11-05T06:28:44.424Z,86.20
2022-11-05T06:31:12.469Z,86.88
2022-11-05T06:33:40.095Z,86.56
2022-11-05T06:36:08.701Z,87.04
2022-11-05T06:38:36.832Z,86.61
2022-11-05T06:41:09.009Z,85.86
2022-11-05T06:43:37.288Z,86.08
2022-11-05T06:46:04.459Z,86.36
2022-11-05T06:48:31.082Z,85.86
2022-11-05T06:50:57.900Z,86.65
2022-11-05T06:53:24.644Z,86.55
2022-11-05T06:55:51.187Z,85.58
2022-11-05T06:58:17.685Z,86.43
2022-11-05T07:00:45.050Z,85.56
2022-11-05T07:03:12.766Z,85.75
2022-11-05T07:05:43.999Z,85.33
2022-11-05T07:08:10.517Z,85.32
2022-11-05T07:10:37.106Z,85.57
2022-11-05T07:13:08.079Z,84.81
2022-11-05T07:15:35.618Z,84.78
2022-11-05T07:18:02.241Z,85.05
2022-11-05T07:20:33.455Z,85.04
2022-11-05T07:23:10.443Z,86.01
2022-11-05T07:25:37.594Z,85.30
2022-11-05T07:28:04.873Z,84.19
2022-11-05T07:30:32.890Z,84.84
2022-11-05T07:32:59.650Z,84.83
2022-11-05T07:35:26.472Z,85.35
2022-11-05T07:37:54.545Z,84.96
2022-11-05T07:40:22.817Z,83.42
2022-11-05T07:42:51.617Z,84.25
2022-11-05T07:45:18.575Z,85.02
2022-11-05T07:47:49.704Z,84.35
2022-11-05T07:50:20.896Z,83.51
2022-11-05T07:52:48.739Z,83.32
2022-11-05T07:55:16.114Z,82.73
2022-11-05T07:57:50.884Z,83.28
2022-11-05T08:00:20.723Z,83.22
2022-11-05T08:03:08.165Z,82.57
2022-11-05T08:05:40.530Z,82.49
2022-11-05T08:08:09.181Z,82.27
2022-11-05T08:10:36.911Z,82.33
2022-11-05T08:13:04.304Z,82.71
2022-11-05T08:15:31.389Z,80.15
2022-11-05T08:18:03.264Z,80.55
2022-11-05T08:20:30.892Z,81.36
2022-11-05T08:22:57.851Z,80.85
2022-11-05T08:25:24.895Z,81.27
2022-11-05T08:27:58.511Z,80.96
2022-11-05T08:30:25.567Z,80.34
2022-11-05T08:32:57.472Z,80.34
2022-11-05T08:35:24.201Z,80.66
2022-11-05T08:37:50.690Z,79.66
2022-11-05T08:40:17.310Z,80.29
2022-11-05T08:42:43.891Z,80.49
2022-11-05T08:45:10.504Z,81.08
2022-11-05T08:47:36.986Z,81.28
2022-11-05T08:50:04.736Z,80.51
2022-11-05T08:52:31.198Z,81.04
2022-11-05T08:54:57.710Z,79.57
2022-11-05T08:57:24.189Z,79.43
2022-11-05T08:59:50.707Z,79.16
2022-11-05T09:02:17.363Z,79.18
2022-11-05T09:04:44.704Z,78.48
2022-11-05T09:07:11.294Z,80.10
2022-11-05T09:09:37.802Z,80.20
2022-11-05T09:12:13.116Z,79.13
2022-11-05T09:14:39.818Z,79.03
2022-11-05T09:20:53.255Z,78.43
2022-11-05T09:23:20.156Z,78.85
2022-11-05T09:25:46.911Z,78.69
2022-11-05T09:28:20.389Z,78.43
2022-11-05T09:30:51.973Z,78.65
2022-11-05T09:33:21.924Z,79.95
2022-11-05T09:35:48.811Z,79.03
2022-11-05T09:38:15.464Z,79.35
2022-11-05T09:40:58.282Z,78.44
2022-11-05T09:43:35.404Z,78.76
2022-11-05T09:46:20.228Z,79.50
2022-11-05T09:48:52.289Z,78.73
2022-11-05T09:51:23.946Z,77.07
2022-11-05T09:53:51.687Z,77.63
2022-11-05T09:56:28.545Z,77.97
2022-11-05T18:38:33.699Z,89.38
2022-11-05T18:41:06.214Z,88.45
2022-11-05T18:43:33.084Z,87.76
2022-11-05T18:45:59.676Z,87.47
2022-11-05T18:48:26.124Z,87.05
2022-11-05T18:50:55.437Z,87.61
2022-11-05T18:53:24.228Z,88.92
2022-11-05T18:55:50.893Z,88.64
2022-11-05T18:58:17.325Z,88.55
2022-11-05T19:00:43.941Z,88.50
2022-11-05T19:03:10.709Z,87.45
2022-11-05T19:05:37.242Z,88.41
2022-11-05T19:08:03.862Z,88.05
2022-11-05T19:10:30.416Z,88.54
2022-11-05T19:12:57.039Z,89.46
2022-11-05T19:15:23.678Z,89.85
2022-11-05T19:17:50.353Z,90.02
2022-11-05T19:20:17.032Z,89.99
2022-11-05T19:22:43.536Z,88.98
2022-11-05T19:25:10.166Z,89.27
2022-11-05T19:27:37.628Z,88.89
2022-11-05T19:30:05.928Z,88.71
2022-11-05T19:32:32.533Z,89.33
2022-11-05T19:34:59.130Z,90.00
2022-11-05T19:37:25.815Z,90.62
2022-11-05T19:39:52.444Z,90.52
2022-11-05T19:42:19.035Z,91.46
2022-11-05T19:44:45.671Z,91.37
2022-11-05T19:47:12.263Z,90.30
2022-11-05T19:49:38.999Z,90.44
2022-11-05T19:52:06.690Z,90.39
2022-11-05T19:54:35.581Z,89.89
2022-11-05T19:57:02.181Z,89.96
2022-11-05T19:59:28.703Z,89.55
2022-11-05T20:01:55.443Z,89.56
2022-11-05T20:04:22.123Z,89.84
2022-11-05T20:06:51.175Z,89.98
2022-11-05T20:09:22.601Z,90.34
2022-11-05T20:11:52.464Z,90.16
2022-11-05T20:14:19.131Z,89.50
2022-11-05T20:16:46.694Z,89.43
2022-11-05T20:19:17.076Z,90.35
2022-11-05T20:21:44.546Z,90.56
2022-11-05T20:24:13.303Z,89.94
2022-11-05T20:26:41.012Z,90.04
2022-11-05T20:29:07.726Z,90.32
2022-11-05T20:31:34.373Z,90.03
2022-11-05T20:34:00.980Z,90.88
2022-11-05T20:36:27.680Z,90.89
2022-11-05T20:38:56.642Z,91.62
2022-11-05T20:41:23.746Z,92.28
2022-11-05T20:43:51.041Z,91.00
2022-11-05T20:46:19.832Z,90.65
2022-11-05T20:48:46.802Z,90.05
2022-11-05T20:51:16.201Z,90.96
2022-11-05T20:53:43.443Z,91.40
2022-11-05T20:56:20.347Z,91.66
2022-11-05T20:58:47.502Z,91.95
2022-11-05T21:01:16.525Z,91.71
2022-11-05T21:03:44.544Z,91.98
2022-11-05T21:06:11.740Z,91.99
2022-11-05T21:08:38.872Z,91.63
2022-11-05T21:11:06.900Z,91.53
2022-11-05T21:13:36.013Z,91.28
2022-11-05T21:16:06.215Z,91.38
2022-11-05T21:18:35.315Z,91.37
2022-11-05T21:21:14.194Z,91.97
2022-11-05T21:23:41.779Z,92.35
2022-11-05T21:26:11.006Z,91.49
2022-11-05T21:28:39.384Z,91.66
2022-11-05T21:31:07.628Z,90.92
2022-11-05T21:33:34.666Z,91.43
2022-11-05T21:36:10.060Z,91.69
2022-11-05T21:38:36.915Z,91.92
2022-11-05T21:41:05.749Z,92.38
2022-11-05T21:43:32.524Z,92.29
2022-11-05T21:46:03.900Z,92.21
2022-11-05T21:48:31.334Z,92.28
2022-11-05T21:51:16.516Z,92.58
2022-11-05T21:54:01.713Z,91.61
2022-11-05T21:56:47.013Z,92.12
2022-11-05T21:59:34.807Z,91.86
2022-11-05T22:02:02.144Z,92.01
2022-11-05T22:04:33.986Z,92.05
2022-11-05T22:07:00.830Z,92.06
2022-11-05T22:09:27.602Z,91.93
2022-11-05T22:11:54.759Z,92.49
2022-11-05T22:14:21.821Z,91.91
2022-11-05T22:16:48.746Z,92.13
2022-11-05T22:19:15.348Z,92.45
2022-11-05T22:21:42.131Z,92.58
2022-11-05T22:24:11.303Z,92.59
2022-11-05T22:26:39.137Z,92.60
2022-11-05T22:29:06.388Z,92.68
2022-11-05T22:31:36.407Z,92.59
2022-11-05T22:34:04.866Z,92.75
2022-11-05T22:36:32.670Z,92.90
2022-11-05T22:38:59.466Z,92.97
2022-11-05T22:41:26.172Z,93.04
2022-11-05T22:43:52.904Z,92.94
2022-11-05T22:46:22.452Z,93.51
2022-11-05T22:48:49.988Z,92.98
2022-11-05T22:51:22.505Z,93.65
2022-11-05T22:53:49.475Z,94.19
2022-11-05T22:56:23.919Z,93.51
2022-11-05T22:58:51.218Z,93.78
2022-11-05T23:01:19.716Z,94.09
2022-11-05T23:03:48.164Z,93.83
2022-11-05T23:06:38.854Z,94.32
2022-11-05T23:09:54.342Z,94.33
2022-11-05T23:12:29.963Z,94.35
2022-11-05T23:14:58.535Z,94.72
2022-11-05T23:17:44.427Z,94.65
2022-11-05T23:20:35.790Z,94.52
2022-11-05T23:23:21.090Z,93.89
2022-11-05T23:25:48.221Z,94.36
2022-11-05T23:28:15.095Z,93.98
2022-11-05T23:31:06.233Z,94.25
2022-11-05T23:33:34.218Z,93.87
2022-11-05T23:36:19.476Z,94.80
2022-11-05T23:38:46.664Z,94.45
2022-11-05T23:41:31.817Z,93.95
2022-11-05T23:44:17.209Z,94.16
2022-11-05T23:47:08.318Z,94.50
2022-11-05T23:49:36.271Z,94.54
2022-11-05T23:52:02.894Z,94.33
2022-11-05T23:54:31.081Z,94.72
2022-11-05T23:56:57.753Z,94.73
2022-11-05T23:59:26.607Z,94.06
